sensor_id;sensor_type;location;lat;lon;timestamp;P1;durP1;ratioP1;P2;durP2;ratioP2
62707;SDS011;48769;51.624;5.886;2022-12-07T00:02:09;34.25;;;21.73;;
62707;SDS011;48769;51.624;5.886;2022-12-07T00:04:34;38.25;;;21.40;;
62707;SDS011;48769;51.624;5.886;2022-12-07T00:06:59;35.00;;;22.92;;
62707;SDS011;48769;51.624;5.886;2022-12-07T00:09:24;37.13;;;23.75;;
62707;SDS011;48769;51.624;5.886;2022-12-07T00:11:50;38.05;;;22.60;;
62707;SDS011;48769;51.624;5.886;2022-12-07T00:14:16;35.97;;;22.80;;
62707;SDS011;48769;51.624;5.886;2022-12-07T00:16:42;34.63;;;22.30;;
62707;SDS011;48769;51.624;5.886;2022-12-07T00:19:10;36.30;;;22.15;;
62707;SDS011;48769;51.624;5.886;2022-12-07T00:21:37;32.67;;;22.13;;
62707;SDS011;48769;51.624;5.886;2022-12-07T00:24:03;35.75;;;21.55;;
62707;SDS011;48769;51.624;5.886;2022-12-07T00:26:30;36.78;;;21.45;;
62707;SDS011;48769;51.624;5.886;2022-12-07T00:28:59;37.83;;;22.63;;
62707;SDS011;48769;51.624;5.886;2022-12-07T00:31:30;27.30;;;19.88;;
62707;SDS011;48769;51.624;5.886;2022-12-07T00:33:58;35.28;;;21.45;;
62707;SDS011;48769;51.624;5.886;2022-12-07T00:36:24;35.75;;;22.27;;
62707;SDS011;48769;51.624;5.886;2022-12-07T00:38:50;39.15;;;23.70;;
62707;SDS011;48769;51.624;5.886;2022-12-07T00:41:19;36.20;;;24.30;;
62707;SDS011;48769;51.624;5.886;2022-12-07T00:43:47;39.42;;;23.48;;
62707;SDS011;48769;51.624;5.886;2022-12-07T00:46:14;38.15;;;24.23;;
62707;SDS011;48769;51.624;5.886;2022-12-07T00:48:40;36.50;;;22.45;;
62707;SDS011;48769;51.624;5.886;2022-12-07T00:51:06;37.00;;;23.08;;
62707;SDS011;48769;51.624;5.886;2022-12-07T00:53:35;38.55;;;24.33;;
62707;SDS011;48769;51.624;5.886;2022-12-07T00:56:04;38.53;;;24.33;;
62707;SDS011;48769;51.624;5.886;2022-12-07T00:58:31;38.95;;;24.98;;
62707;SDS011;48769;51.624;5.886;2022-12-07T01:00:56;41.67;;;26.40;;
62707;SDS011;48769;51.624;5.886;2022-12-07T01:03:25;43.10;;;24.95;;
62707;SDS011;48769;51.624;5.886;2022-12-07T01:05:54;37.15;;;25.45;;
62707;SDS011;48769;51.624;5.886;2022-12-07T01:08:20;39.42;;;25.27;;
62707;SDS011;48769;51.624;5.886;2022-12-07T01:10:46;38.97;;;24.52;;
62707;SDS011;48769;51.624;5.886;2022-12-07T01:13:11;40.13;;;24.58;;
62707;SDS011;48769;51.624;5.886;2022-12-07T01:15:41;40.38;;;24.88;;
62707;SDS011;48769;51.624;5.886;2022-12-07T01:18:08;40.55;;;24.33;;
62707;SDS011;48769;51.624;5.886;2022-12-07T01:20:34;37.47;;;23.48;;
62707;SDS011;48769;51.624;5.886;2022-12-07T01:23:00;35.38;;;23.80;;
62707;SDS011;48769;51.624;5.886;2022-12-07T01:25:25;43.60;;;23.92;;
62707;SDS011;48769;51.624;5.886;2022-12-07T01:27:50;34.90;;;23.92;;
62707;SDS011;48769;51.624;5.886;2022-12-07T01:30:16;39.33;;;24.05;;
62707;SDS011;48769;51.624;5.886;2022-12-07T01:32:41;38.28;;;22.90;;
62707;SDS011;48769;51.624;5.886;2022-12-07T01:35:07;32.58;;;23.08;;
62707;SDS011;48769;51.624;5.886;2022-12-07T01:37:36;41.15;;;23.05;;
62707;SDS011;48769;51.624;5.886;2022-12-07T01:40:03;32.70;;;21.48;;
62707;SDS011;48769;51.624;5.886;2022-12-07T01:42:33;39.28;;;23.20;;
62707;SDS011;48769;51.624;5.886;2022-12-07T01:45:25;36.92;;;24.05;;
62707;SDS011;48769;51.624;5.886;2022-12-07T01:48:02;41.35;;;24.02;;
62707;SDS011;48769;51.624;5.886;2022-12-07T01:50:28;39.63;;;24.70;;
62707;SDS011;48769;51.624;5.886;2022-12-07T01:52:57;38.30;;;24.08;;
62707;SDS011;48769;51.624;5.886;2022-12-07T01:55:26;44.17;;;24.38;;
62707;SDS011;48769;51.624;5.886;2022-12-07T01:57:52;42.60;;;23.90;;
62707;SDS011;48769;51.624;5.886;2022-12-07T02:00:19;39.75;;;24.83;;
62707;SDS011;48769;51.624;5.886;2022-12-07T02:02:53;40.95;;;25.20;;
62707;SDS011;48769;51.624;5.886;2022-12-07T02:05:22;45.08;;;25.13;;
62707;SDS011;48769;51.624;5.886;2022-12-07T02:07:49;44.30;;;24.55;;
62707;SDS011;48769;51.624;5.886;2022-12-07T02:10:18;41.22;;;24.30;;
62707;SDS011;48769;51.624;5.886;2022-12-07T02:12:46;44.95;;;25.08;;
62707;SDS011;48769;51.624;5.886;2022-12-07T02:15:16;35.47;;;23.50;;
62707;SDS011;48769;51.624;5.886;2022-12-07T02:28:37;38.38;;;24.08;;
62707;SDS011;48769;51.624;5.886;2022-12-07T02:31:22;35.47;;;21.55;;
62707;SDS011;48769;51.624;5.886;2022-12-07T02:34:15;42.15;;;23.15;;
62707;SDS011;48769;51.624;5.886;2022-12-07T02:36:46;35.38;;;21.95;;
62707;SDS011;48769;51.624;5.886;2022-12-07T02:39:20;43.55;;;23.80;;
62707;SDS011;48769;51.624;5.886;2022-12-07T02:41:55;36.17;;;22.45;;
62707;SDS011;48769;51.624;5.886;2022-12-07T02:44:24;45.65;;;23.85;;
62707;SDS011;48769;51.624;5.886;2022-12-07T02:46:54;41.42;;;23.75;;
62707;SDS011;48769;51.624;5.886;2022-12-07T02:49:24;39.33;;;23.50;;
62707;SDS011;48769;51.624;5.886;2022-12-07T02:51:52;41.97;;;22.45;;
62707;SDS011;48769;51.624;5.886;2022-12-07T02:54:19;40.38;;;23.33;;
62707;SDS011;48769;51.624;5.886;2022-12-07T02:56:47;34.38;;;22.02;;
62707;SDS011;48769;51.624;5.886;2022-12-07T03:05:01;38.17;;;20.92;;
62707;SDS011;48769;51.624;5.886;2022-12-07T03:13:12;40.72;;;19.55;;
62707;SDS011;48769;51.624;5.886;2022-12-07T03:15:54;31.92;;;21.10;;
62707;SDS011;48769;51.624;5.886;2022-12-07T03:18:21;39.90;;;22.45;;
62707;SDS011;48769;51.624;5.886;2022-12-07T03:20:50;40.50;;;23.00;;
62707;SDS011;48769;51.624;5.886;2022-12-07T03:23:19;43.97;;;21.15;;
62707;SDS011;48769;51.624;5.886;2022-12-07T03:25:49;38.80;;;22.48;;
62707;SDS011;48769;51.624;5.886;2022-12-07T03:28:19;38.60;;;21.08;;
62707;SDS011;48769;51.624;5.886;2022-12-07T03:30:52;39.85;;;23.25;;
62707;SDS011;48769;51.624;5.886;2022-12-07T03:33:25;38.33;;;22.23;;
62707;SDS011;48769;51.624;5.886;2022-12-07T03:36:01;38.40;;;21.63;;
62707;SDS011;48769;51.624;5.886;2022-12-07T03:38:38;39.35;;;21.67;;
62707;SDS011;48769;51.624;5.886;2022-12-07T03:41:12;37.65;;;20.73;;
62707;SDS011;48769;51.624;5.886;2022-12-07T03:43:45;37.20;;;21.30;;
62707;SDS011;48769;51.624;5.886;2022-12-07T03:49:04;31.60;;;19.70;;
62707;SDS011;48769;51.624;5.886;2022-12-07T03:51:57;34.88;;;20.33;;
62707;SDS011;48769;51.624;5.886;2022-12-07T03:54:32;31.50;;;19.00;;
62707;SDS011;48769;51.624;5.886;2022-12-07T03:57:01;29.08;;;19.13;;
62707;SDS011;48769;51.624;5.886;2022-12-07T03:59:29;33.83;;;19.90;;
62707;SDS011;48769;51.624;5.886;2022-12-07T04:01:56;30.95;;;17.92;;
62707;SDS011;48769;51.624;5.886;2022-12-07T04:04:26;32.05;;;19.42;;
62707;SDS011;48769;51.624;5.886;2022-12-07T04:06:52;31.05;;;19.10;;
62707;SDS011;48769;51.624;5.886;2022-12-07T04:09:18;30.15;;;18.48;;
62707;SDS011;48769;51.624;5.886;2022-12-07T04:11:44;31.27;;;19.95;;
62707;SDS011;48769;51.624;5.886;2022-12-07T04:14:09;36.03;;;18.20;;
62707;SDS011;48769;51.624;5.886;2022-12-07T04:16:44;28.55;;;18.27;;
62707;SDS011;48769;51.624;5.886;2022-12-07T04:19:13;24.95;;;17.38;;
62707;SDS011;48769;51.624;5.886;2022-12-07T04:21:39;30.23;;;18.45;;
62707;SDS011;48769;51.624;5.886;2022-12-07T04:24:05;30.27;;;17.73;;
62707;SDS011;48769;51.624;5.886;2022-12-07T04:26:31;26.33;;;16.60;;
62707;SDS011;48769;51.624;5.886;2022-12-07T04:28:56;26.55;;;17.17;;
62707;SDS011;48769;51.624;5.886;2022-12-07T04:31:21;30.60;;;16.65;;
62707;SDS011;48769;51.624;5.886;2022-12-07T04:33:47;30.27;;;17.20;;
62707;SDS011;48769;51.624;5.886;2022-12-07T04:36:12;26.67;;;17.52;;
62707;SDS011;48769;51.624;5.886;2022-12-07T04:38:37;30.83;;;16.23;;
62707;SDS011;48769;51.624;5.886;2022-12-07T04:41:06;25.60;;;15.32;;
62707;SDS011;48769;51.624;5.886;2022-12-07T04:43:32;28.38;;;17.23;;
62707;SDS011;48769;51.624;5.886;2022-12-07T04:45:58;34.10;;;17.13;;
62707;SDS011;48769;51.624;5.886;2022-12-07T04:48:23;30.30;;;17.75;;
62707;SDS011;48769;51.624;5.886;2022-12-07T04:50:49;31.45;;;16.65;;
62707;SDS011;48769;51.624;5.886;2022-12-07T04:53:14;33.15;;;16.20;;
62707;SDS011;48769;51.624;5.886;2022-12-07T04:55:40;34.00;;;15.55;;
62707;SDS011;48769;51.624;5.886;2022-12-07T04:58:05;28.92;;;14.80;;
62707;SDS011;48769;51.624;5.886;2022-12-07T05:00:30;27.80;;;13.32;;
62707;SDS011;48769;51.624;5.886;2022-12-07T05:02:56;26.95;;;12.98;;
62707;SDS011;48769;51.624;5.886;2022-12-07T05:05:21;22.65;;;12.20;;
62707;SDS011;48769;51.624;5.886;2022-12-07T05:07:46;19.73;;;11.68;;
62707;SDS011;48769;51.624;5.886;2022-12-07T05:10:12;19.55;;;10.93;;
62707;SDS011;48769;51.624;5.886;2022-12-07T05:12:37;18.20;;;11.10;;
62707;SDS011;48769;51.624;5.886;2022-12-07T05:15:02;22.13;;;11.27;;
62707;SDS011;48769;51.624;5.886;2022-12-07T05:17:28;21.33;;;11.13;;
62707;SDS011;48769;51.624;5.886;2022-12-07T05:19:53;19.00;;;10.43;;
62707;SDS011;48769;51.624;5.886;2022-12-07T05:22:19;19.65;;;11.35;;
62707;SDS011;48769;51.624;5.886;2022-12-07T05:24:44;16.00;;;11.55;;
62707;SDS011;48769;51.624;5.886;2022-12-07T05:27:09;23.33;;;11.38;;
62707;SDS011;48769;51.624;5.886;2022-12-07T05:29:35;25.45;;;10.48;;
62707;SDS011;48769;51.624;5.886;2022-12-07T05:32:00;27.83;;;10.50;;
62707;SDS011;48769;51.624;5.886;2022-12-07T05:34:25;23.75;;;10.75;;
62707;SDS011;48769;51.624;5.886;2022-12-07T05:36:51;21.20;;;10.82;;
62707;SDS011;48769;51.624;5.886;2022-12-07T05:39:16;18.85;;;10.88;;
62707;SDS011;48769;51.624;5.886;2022-12-07T05:41:41;20.20;;;12.00;;
62707;SDS011;48769;51.624;5.886;2022-12-07T05:44:25;26.35;;;12.07;;
62707;SDS011;48769;51.624;5.886;2022-12-07T05:46:51;20.05;;;12.23;;
62707;SDS011;48769;51.624;5.886;2022-12-07T05:49:16;23.52;;;12.18;;
62707;SDS011;48769;51.624;5.886;2022-12-07T05:51:41;20.90;;;11.80;;
62707;SDS011;48769;51.624;5.886;2022-12-07T05:54:07;22.67;;;13.07;;
62707;SDS011;48769;51.624;5.886;2022-12-07T05:56:32;31.38;;;14.07;;
62707;SDS011;48769;51.624;5.886;2022-12-07T05:58:57;28.48;;;14.40;;
62707;SDS011;48769;51.624;5.886;2022-12-07T06:01:42;34.28;;;13.60;;
62707;SDS011;48769;51.624;5.886;2022-12-07T06:04:07;24.60;;;14.48;;
62707;SDS011;48769;51.624;5.886;2022-12-07T06:06:32;27.95;;;15.15;;
62707;SDS011;48769;51.624;5.886;2022-12-07T06:08:58;24.60;;;14.48;;
62707;SDS011;48769;51.624;5.886;2022-12-07T06:11:23;33.45;;;14.98;;
62707;SDS011;48769;51.624;5.886;2022-12-07T06:14:07;24.48;;;14.43;;
62707;SDS011;48769;51.624;5.886;2022-12-07T06:16:32;28.40;;;15.13;;
62707;SDS011;48769;51.624;5.886;2022-12-07T06:18:58;29.90;;;15.75;;
62707;SDS011;48769;51.624;5.886;2022-12-07T06:21:23;30.48;;;16.00;;
62707;SDS011;48769;51.624;5.886;2022-12-07T06:23:50;32.63;;;16.05;;
62707;SDS011;48769;51.624;5.886;2022-12-07T06:26:16;31.30;;;15.95;;
62707;SDS011;48769;51.624;5.886;2022-12-07T06:28:41;29.85;;;16.27;;
62707;SDS011;48769;51.624;5.886;2022-12-07T06:31:07;25.73;;;15.93;;
62707;SDS011;48769;51.624;5.886;2022-12-07T06:33:32;32.47;;;16.23;;
62707;SDS011;48769;51.624;5.886;2022-12-07T06:35:58;25.95;;;15.32;;
62707;SDS011;48769;51.624;5.886;2022-12-07T06:38:23;26.73;;;15.55;;
62707;SDS011;48769;51.624;5.886;2022-12-07T06:40:49;28.15;;;15.10;;
62707;SDS011;48769;51.624;5.886;2022-12-07T06:43:14;25.55;;;14.40;;
62707;SDS011;48769;51.624;5.886;2022-12-07T06:45:40;29.50;;;15.32;;
62707;SDS011;48769;51.624;5.886;2022-12-07T06:48:06;30.25;;;14.85;;
62707;SDS011;48769;51.624;5.886;2022-12-07T06:50:31;28.35;;;14.70;;
62707;SDS011;48769;51.624;5.886;2022-12-07T06:52:57;24.77;;;14.52;;
62707;SDS011;48769;51.624;5.886;2022-12-07T06:55:22;28.63;;;14.02;;
62707;SDS011;48769;51.624;5.886;2022-12-07T06:57:47;27.33;;;14.93;;
62707;SDS011;48769;51.624;5.886;2022-12-07T07:00:13;29.95;;;14.38;;
62707;SDS011;48769;51.624;5.886;2022-12-07T07:02:38;30.98;;;16.23;;
62707;SDS011;48769;51.624;5.886;2022-12-07T07:05:04;25.90;;;14.60;;
62707;SDS011;48769;51.624;5.886;2022-12-07T07:07:29;26.08;;;14.38;;
62707;SDS011;48769;51.624;5.886;2022-12-07T07:09:55;25.45;;;13.65;;
62707;SDS011;48769;51.624;5.886;2022-12-07T07:12:20;29.48;;;13.93;;
62707;SDS011;48769;51.624;5.886;2022-12-07T07:14:45;25.67;;;14.85;;
62707;SDS011;48769;51.624;5.886;2022-12-07T07:17:11;25.65;;;15.00;;
62707;SDS011;48769;51.624;5.886;2022-12-07T07:19:36;33.95;;;14.60;;
62707;SDS011;48769;51.624;5.886;2022-12-07T07:22:02;23.33;;;15.45;;
62707;SDS011;48769;51.624;5.886;2022-12-07T07:24:28;29.25;;;14.45;;
62707;SDS011;48769;51.624;5.886;2022-12-07T07:26:54;30.75;;;15.13;;
62707;SDS011;48769;51.624;5.886;2022-12-07T07:29:19;23.50;;;14.35;;
62707;SDS011;48769;51.624;5.886;2022-12-07T07:31:44;33.25;;;15.13;;
62707;SDS011;48769;51.624;5.886;2022-12-07T07:34:09;26.48;;;14.40;;
62707;SDS011;48769;51.624;5.886;2022-12-07T07:36:35;29.00;;;15.43;;
62707;SDS011;48769;51.624;5.886;2022-12-07T07:39:00;26.17;;;14.80;;
62707;SDS011;48769;51.624;5.886;2022-12-07T07:41:25;30.33;;;15.65;;
62707;SDS011;48769;51.624;5.886;2022-12-07T07:43:51;29.00;;;15.95;;
62707;SDS011;48769;51.624;5.886;2022-12-07T07:46:16;28.63;;;14.65;;
62707;SDS011;48769;51.624;5.886;2022-12-07T07:48:41;27.02;;;14.85;;
62707;SDS011;48769;51.624;5.886;2022-12-07T07:51:07;27.35;;;14.82;;
62707;SDS011;48769;51.624;5.886;2022-12-07T07:53:33;27.38;;;15.25;;
62707;SDS011;48769;51.624;5.886;2022-12-07T07:55:58;23.83;;;13.90;;
62707;SDS011;48769;51.624;5.886;2022-12-07T07:58:24;31.10;;;14.43;;
62707;SDS011;48769;51.624;5.886;2022-12-07T08:00:49;29.15;;;14.48;;
62707;SDS011;48769;51.624;5.886;2022-12-07T08:03:14;30.80;;;14.65;;
62707;SDS011;48769;51.624;5.886;2022-12-07T08:05:40;22.30;;;14.82;;
62707;SDS011;48769;51.624;5.886;2022-12-07T08:08:06;31.10;;;14.90;;
62707;SDS011;48769;51.624;5.886;2022-12-07T08:10:31;23.25;;;14.35;;
62707;SDS011;48769;51.624;5.886;2022-12-07T08:12:57;26.55;;;14.35;;
62707;SDS011;48769;51.624;5.886;2022-12-07T08:15:42;24.00;;;14.25;;
62707;SDS011;48769;51.624;5.886;2022-12-07T08:18:08;27.75;;;14.57;;
62707;SDS011;48769;51.624;5.886;2022-12-07T08:20:34;31.58;;;15.43;;
62707;SDS011;48769;51.624;5.886;2022-12-07T08:23:01;32.30;;;17.38;;
62707;SDS011;48769;51.624;5.886;2022-12-07T08:25:27;41.50;;;22.73;;
62707;SDS011;48769;51.624;5.886;2022-12-07T08:27:53;31.25;;;19.00;;
62707;SDS011;48769;51.624;5.886;2022-12-07T08:30:19;31.90;;;16.13;;
62707;SDS011;48769;51.624;5.886;2022-12-07T08:32:46;29.17;;;16.73;;
62707;SDS011;48769;51.624;5.886;2022-12-07T08:35:12;24.38;;;14.57;;
62707;SDS011;48769;51.624;5.886;2022-12-07T08:37:38;26.77;;;16.23;;
62707;SDS011;48769;51.624;5.886;2022-12-07T08:40:05;29.58;;;14.77;;
62707;SDS011;48769;51.624;5.886;2022-12-07T08:42:32;22.00;;;13.88;;
62707;SDS011;48769;51.624;5.886;2022-12-07T08:45:12;19.83;;;13.80;;
62707;SDS011;48769;51.624;5.886;2022-12-07T08:47:48;31.40;;;14.50;;
62707;SDS011;48769;51.624;5.886;2022-12-07T08:50:19;30.58;;;14.52;;
62707;SDS011;48769;51.624;5.886;2022-12-07T08:52:53;22.70;;;14.60;;
62707;SDS011;48769;51.624;5.886;2022-12-07T08:55:21;26.65;;;14.93;;
62707;SDS011;48769;51.624;5.886;2022-12-07T08:57:47;26.33;;;15.38;;
62707;SDS011;48769;51.624;5.886;2022-12-07T09:00:16;27.00;;;14.77;;
62707;SDS011;48769;51.624;5.886;2022-12-07T09:02:43;26.48;;;14.75;;
62707;SDS011;48769;51.624;5.886;2022-12-07T09:05:09;27.30;;;17.15;;
62707;SDS011;48769;51.624;5.886;2022-12-07T09:07:35;26.00;;;15.00;;
62707;SDS011;48769;51.624;5.886;2022-12-07T09:10:01;25.05;;;15.23;;
62707;SDS011;48769;51.624;5.886;2022-12-07T09:12:27;29.63;;;16.95;;
62707;SDS011;48769;51.624;5.886;2022-12-07T09:14:52;31.55;;;16.52;;
62707;SDS011;48769;51.624;5.886;2022-12-07T09:17:18;27.92;;;15.10;;
62707;SDS011;48769;51.624;5.886;2022-12-07T09:19:43;25.48;;;14.00;;
62707;SDS011;48769;51.624;5.886;2022-12-07T09:22:09;28.63;;;15.57;;
62707;SDS011;48769;51.624;5.886;2022-12-07T09:24:34;22.00;;;15.52;;
62707;SDS011;48769;51.624;5.886;2022-12-07T09:27:00;28.27;;;15.60;;
62707;SDS011;48769;51.624;5.886;2022-12-07T09:29:25;27.48;;;15.38;;
62707;SDS011;48769;51.624;5.886;2022-12-07T09:31:51;27.40;;;15.18;;
62707;SDS011;48769;51.624;5.886;2022-12-07T09:34:17;29.00;;;16.02;;
62707;SDS011;48769;51.624;5.886;2022-12-07T09:36:43;28.55;;;15.38;;
62707;SDS011;48769;51.624;5.886;2022-12-07T09:39:08;25.98;;;15.50;;
62707;SDS011;48769;51.624;5.886;2022-12-07T09:41:33;28.67;;;14.00;;
62707;SDS011;48769;51.624;5.886;2022-12-07T09:44:10;16.73;;;11.93;;
62707;SDS011;48769;51.624;5.886;2022-12-07T09:46:39;24.15;;;13.02;;
62707;SDS011;48769;51.624;5.886;2022-12-07T09:49:16;23.92;;;13.50;;
62707;SDS011;48769;51.624;5.886;2022-12-07T09:51:44;20.83;;;11.05;;
62707;SDS011;48769;51.624;5.886;2022-12-07T09:54:14;22.70;;;11.98;;
62707;SDS011;48769;51.624;5.886;2022-12-07T09:56:40;19.02;;;11.63;;
62707;SDS011;48769;51.624;5.886;2022-12-07T09:59:09;24.33;;;11.80;;
62707;SDS011;48769;51.624;5.886;2022-12-07T10:01:39;31.25;;;12.20;;
62707;SDS011;48769;51.624;5.886;2022-12-07T10:04:09;18.88;;;11.50;;
62707;SDS011;48769;51.624;5.886;2022-12-07T10:06:46;19.55;;;9.45;;
62707;SDS011;48769;51.624;5.886;2022-12-07T10:09:13;18.65;;;9.52;;
62707;SDS011;48769;51.624;5.886;2022-12-07T10:12:25;13.82;;;8.98;;
62707;SDS011;48769;51.624;5.886;2022-12-07T10:14:39;16.45;;;8.45;;
62707;SDS011;48769;51.624;5.886;2022-12-07T10:17:36;16.20;;;8.35;;
62707;SDS011;48769;51.624;5.886;2022-12-07T10:20:20;14.18;;;7.90;;
62707;SDS011;48769;51.624;5.886;2022-12-07T10:25:29;10.23;;;7.15;;
62707;SDS011;48769;51.624;5.886;2022-12-07T10:27:58;14.15;;;7.22;;
62707;SDS011;48769;51.624;5.886;2022-12-07T10:30:26;18.05;;;7.80;;
62707;SDS011;48769;51.624;5.886;2022-12-07T10:32:51;12.88;;;6.80;;
62707;SDS011;48769;51.624;5.886;2022-12-07T10:35:27;17.92;;;7.15;;
62707;SDS011;48769;51.624;5.886;2022-12-07T10:37:54;13.82;;;7.15;;
62707;SDS011;48769;51.624;5.886;2022-12-07T10:51:02;11.13;;;6.15;;
62707;SDS011;48769;51.624;5.886;2022-12-07T10:56:27;14.88;;;5.25;;
62707;SDS011;48769;51.624;5.886;2022-12-07T11:01:42;7.80;;;4.95;;
62707;SDS011;48769;51.624;5.886;2022-12-07T11:07:06;18.55;;;5.40;;
62707;SDS011;48769;51.624;5.886;2022-12-07T11:14:56;10.18;;;4.15;;
62707;SDS011;48769;51.624;5.886;2022-12-07T11:17:42;10.40;;;5.10;;
62707;SDS011;48769;51.624;5.886;2022-12-07T11:20:24;9.07;;;4.35;;
62707;SDS011;48769;51.624;5.886;2022-12-07T11:23:31;13.38;;;3.92;;
62707;SDS011;48769;51.624;5.886;2022-12-07T11:34:57;13.65;;;4.72;;
62707;SDS011;48769;51.624;5.886;2022-12-07T11:37:34;8.82;;;3.65;;
62707;SDS011;48769;51.624;5.886;2022-12-07T11:40:03;15.82;;;3.88;;
62707;SDS011;48769;51.624;5.886;2022-12-07T11:42:39;7.28;;;2.92;;
62707;SDS011;48769;51.624;5.886;2022-12-07T11:45:17;13.98;;;4.28;;
62707;SDS011;48769;51.624;5.886;2022-12-07T11:47:48;12.10;;;4.05;;
62707;SDS011;48769;51.624;5.886;2022-12-07T11:53:02;13.45;;;4.82;;
62707;SDS011;48769;51.624;5.886;2022-12-07T11:55:49;10.32;;;3.72;;
62707;SDS011;48769;51.624;5.886;2022-12-07T12:01:08;12.52;;;4.60;;
62707;SDS011;48769;51.624;5.886;2022-12-07T12:03:45;10.80;;;4.20;;
62707;SDS011;48769;51.624;5.886;2022-12-07T12:06:12;11.15;;;4.65;;
62707;SDS011;48769;51.624;5.886;2022-12-07T12:14:10;10.23;;;3.22;;
62707;SDS011;48769;51.624;5.886;2022-12-07T12:17:13;11.93;;;4.28;;
62707;SDS011;48769;51.624;5.886;2022-12-07T12:23:14;11.48;;;3.95;;
62707;SDS011;48769;51.624;5.886;2022-12-07T12:31:06;11.55;;;4.95;;
62707;SDS011;48769;51.624;5.886;2022-12-07T12:33:35;9.18;;;4.55;;
62707;SDS011;48769;51.624;5.886;2022-12-07T12:54:31;11.25;;;5.32;;
62707;SDS011;48769;51.624;5.886;2022-12-07T13:05:00;12.20;;;5.43;;
62707;SDS011;48769;51.624;5.886;2022-12-07T13:15:49;8.82;;;4.03;;
62707;SDS011;48769;51.624;5.886;2022-12-07T13:29:44;29.63;;;11.05;;
62707;SDS011;48769;51.624;5.886;2022-12-07T13:34:31;11.82;;;3.72;;
62707;SDS011;48769;51.624;5.886;2022-12-07T13:39:33;8.52;;;3.08;;
62707;SDS011;48769;51.624;5.886;2022-12-07T13:42:06;9.07;;;3.40;;
62707;SDS011;48769;51.624;5.886;2022-12-07T13:44:39;11.02;;;2.85;;
62707;SDS011;48769;51.624;5.886;2022-12-07T13:47:06;6.22;;;2.20;;
62707;SDS011;48769;51.624;5.886;2022-12-07T13:49:48;6.22;;;2.53;;
62707;SDS011;48769;51.624;5.886;2022-12-07T13:54:47;6.93;;;1.95;;
62707;SDS011;48769;51.624;5.886;2022-12-07T13:57:24;6.22;;;1.67;;
62707;SDS011;48769;51.624;5.886;2022-12-07T13:59:50;8.57;;;2.30;;
62707;SDS011;48769;51.624;5.886;2022-12-07T14:02:20;2.95;;;1.30;;
62707;SDS011;48769;51.624;5.886;2022-12-07T14:04:49;5.68;;;2.03;;
62707;SDS011;48769;51.624;5.886;2022-12-07T14:09:54;10.68;;;2.10;;
62707;SDS011;48769;51.624;5.886;2022-12-07T14:12:21;6.45;;;1.63;;
62707;SDS011;48769;51.624;5.886;2022-12-07T14:14:50;5.05;;;1.52;;
62707;SDS011;48769;51.624;5.886;2022-12-07T14:17:20;7.70;;;1.67;;
62707;SDS011;48769;51.624;5.886;2022-12-07T14:22:38;5.60;;;1.80;;
62707;SDS011;48769;51.624;5.886;2022-12-07T14:27:38;6.65;;;1.73;;
62707;SDS011;48769;51.624;5.886;2022-12-07T14:30:04;7.30;;;2.25;;
62707;SDS011;48769;51.624;5.886;2022-12-07T14:32:30;7.43;;;2.28;;
62707;SDS011;48769;51.624;5.886;2022-12-07T14:34:57;7.05;;;2.10;;
62707;SDS011;48769;51.624;5.886;2022-12-07T14:37:24;8.57;;;2.30;;
62707;SDS011;48769;51.624;5.886;2022-12-07T14:39:49;8.60;;;2.20;;
62707;SDS011;48769;51.624;5.886;2022-12-07T14:42:15;7.30;;;2.92;;
62707;SDS011;48769;51.624;5.886;2022-12-07T14:44:41;10.30;;;2.50;;
62707;SDS011;48769;51.624;5.886;2022-12-07T14:47:08;11.32;;;3.08;;
62707;SDS011;48769;51.624;5.886;2022-12-07T14:49:37;7.32;;;2.33;;
62707;SDS011;48769;51.624;5.886;2022-12-07T14:52:03;14.98;;;2.42;;
62707;SDS011;48769;51.624;5.886;2022-12-07T14:54:30;8.70;;;3.03;;
62707;SDS011;48769;51.624;5.886;2022-12-07T14:56:56;12.38;;;2.67;;
62707;SDS011;48769;51.624;5.886;2022-12-07T14:59:22;5.35;;;2.65;;
62707;SDS011;48769;51.624;5.886;2022-12-07T15:01:47;7.70;;;2.50;;
62707;SDS011;48769;51.624;5.886;2022-12-07T15:04:12;8.63;;;2.53;;
62707;SDS011;48769;51.624;5.886;2022-12-07T15:06:38;10.70;;;4.05;;
62707;SDS011;48769;51.624;5.886;2022-12-07T15:09:04;6.22;;;1.92;;
62707;SDS011;48769;51.624;5.886;2022-12-07T15:11:30;5.13;;;1.95;;
62707;SDS011;48769;51.624;5.886;2022-12-07T15:13:55;5.55;;;2.17;;
62707;SDS011;48769;51.624;5.886;2022-12-07T15:16:33;7.35;;;1.25;;
62707;SDS011;48769;51.624;5.886;2022-12-07T15:18:58;6.85;;;1.67;;
62707;SDS011;48769;51.624;5.886;2022-12-07T15:21:24;4.82;;;1.65;;
62707;SDS011;48769;51.624;5.886;2022-12-07T15:23:49;7.10;;;2.70;;
62707;SDS011;48769;51.624;5.886;2022-12-07T15:26:14;7.38;;;3.72;;
62707;SDS011;48769;51.624;5.886;2022-12-07T15:28:40;7.28;;;2.00;;
62707;SDS011;48769;51.624;5.886;2022-12-07T15:31:11;5.63;;;2.00;;
62707;SDS011;48769;51.624;5.886;2022-12-07T15:33:37;5.10;;;1.90;;
62707;SDS011;48769;51.624;5.886;2022-12-07T15:36:02;4.75;;;1.92;;
62707;SDS011;48769;51.624;5.886;2022-12-07T15:38:28;5.75;;;2.47;;
62707;SDS011;48769;51.624;5.886;2022-12-07T15:40:55;3.50;;;1.70;;
62707;SDS011;48769;51.624;5.886;2022-12-07T15:43:20;2.42;;;1.70;;
62707;SDS011;48769;51.624;5.886;2022-12-07T15:46:04;3.15;;;1.80;;
62707;SDS011;48769;51.624;5.886;2022-12-07T15:48:29;8.90;;;2.20;;
62707;SDS011;48769;51.624;5.886;2022-12-07T15:51:16;7.82;;;2.30;;
62707;SDS011;48769;51.624;5.886;2022-12-07T15:53:40;3.45;;;2.22;;
62707;SDS011;48769;51.624;5.886;2022-12-07T15:56:06;6.00;;;2.22;;
62707;SDS011;48769;51.624;5.886;2022-12-07T15:58:32;8.85;;;2.00;;
62707;SDS011;48769;51.624;5.886;2022-12-07T16:00:57;7.25;;;2.30;;
62707;SDS011;48769;51.624;5.886;2022-12-07T16:03:23;8.82;;;1.95;;
62707;SDS011;48769;51.624;5.886;2022-12-07T16:05:49;6.82;;;2.83;;
62707;SDS011;48769;51.624;5.886;2022-12-07T16:08:15;6.43;;;2.55;;
62707;SDS011;48769;51.624;5.886;2022-12-07T16:10:40;8.20;;;2.35;;
62707;SDS011;48769;51.624;5.886;2022-12-07T16:13:08;9.10;;;4.07;;
62707;SDS011;48769;51.624;5.886;2022-12-07T16:15:37;12.60;;;2.40;;
62707;SDS011;48769;51.624;5.886;2022-12-07T16:18:03;10.55;;;2.75;;
62707;SDS011;48769;51.624;5.886;2022-12-07T16:20:28;5.82;;;2.50;;
62707;SDS011;48769;51.624;5.886;2022-12-07T16:22:54;5.00;;;2.35;;
62707;SDS011;48769;51.624;5.886;2022-12-07T16:25:19;5.03;;;2.22;;
62707;SDS011;48769;51.624;5.886;2022-12-07T16:27:45;8.85;;;2.80;;
62707;SDS011;48769;51.624;5.886;2022-12-07T16:30:11;8.20;;;2.75;;
62707;SDS011;48769;51.624;5.886;2022-12-07T16:32:37;6.30;;;3.00;;
62707;SDS011;48769;51.624;5.886;2022-12-07T16:35:02;6.40;;;3.40;;
62707;SDS011;48769;51.624;5.886;2022-12-07T16:37:28;6.90;;;3.15;;
62707;SDS011;48769;51.624;5.886;2022-12-07T16:39:53;10.45;;;3.78;;
62707;SDS011;48769;51.624;5.886;2022-12-07T16:42:19;4.38;;;3.10;;
62707;SDS011;48769;51.624;5.886;2022-12-07T16:44:44;8.18;;;3.22;;
62707;SDS011;48769;51.624;5.886;2022-12-07T16:47:09;7.43;;;3.00;;
62707;SDS011;48769;51.624;5.886;2022-12-07T16:49:34;8.43;;;2.95;;
62707;SDS011;48769;51.624;5.886;2022-12-07T16:52:00;10.30;;;3.70;;
62707;SDS011;48769;51.624;5.886;2022-12-07T16:54:25;10.07;;;3.28;;
62707;SDS011;48769;51.624;5.886;2022-12-07T16:56:53;10.93;;;3.53;;
62707;SDS011;48769;51.624;5.886;2022-12-07T16:59:18;10.05;;;3.97;;